createdAt,value
2019-02-16T00:00:24.841Z,85.00
2019-02-16T00:02:53.398Z,85.90
2019-02-16T00:05:21.874Z,85.20
2019-02-16T00:07:50.347Z,85.10
2019-02-16T00:10:18.824Z,85.10
2019-02-16T00:12:47.293Z,85.20
2019-02-16T00:15:15.851Z,85.20
2019-02-16T00:17:44.312Z,85.20
2019-02-16T00:20:12.803Z,85.20
2019-02-16T00:22:41.269Z,85.20
2019-02-16T00:25:09.741Z,85.30
2019-02-16T00:27:38.213Z,85.40
2019-02-16T00:30:07.815Z,85.30
2019-02-16T00:32:36.284Z,85.40
2019-02-16T00:35:05.800Z,85.50
2019-02-16T00:37:34.273Z,85.50
2019-02-16T00:40:03.526Z,85.50
2019-02-16T00:42:31.989Z,85.50
2019-02-16T00:45:00.498Z,85.60
2019-02-16T00:47:28.963Z,85.60
2019-02-16T00:49:57.423Z,85.60
2019-02-16T00:52:25.907Z,85.70
2019-02-16T00:54:54.371Z,86.60
2019-02-16T00:57:22.851Z,85.80
2019-02-16T00:59:51.321Z,85.90
2019-02-16T01:02:19.798Z,86.00
2019-02-16T01:04:48.264Z,85.90
2019-02-16T01:07:16.743Z,85.80
2019-02-16T01:09:45.282Z,85.70
2019-02-16T01:12:13.766Z,85.50
2019-02-16T01:14:42.230Z,85.60
2019-02-16T01:17:10.702Z,85.50
2019-02-16T01:19:39.209Z,85.40
2019-02-16T01:22:07.740Z,85.20
2019-02-16T01:24:36.202Z,85.20
2019-02-16T01:27:04.697Z,85.00
2019-02-16T01:29:33.154Z,84.90
2019-02-16T01:32:01.638Z,84.90
2019-02-16T01:34:30.100Z,84.80
2019-02-16T01:36:58.588Z,84.90
2019-02-16T01:39:27.122Z,84.90
2019-02-16T01:41:55.610Z,85.00
2019-02-16T01:44:24.072Z,85.10
2019-02-16T01:46:52.547Z,85.00
2019-02-16T01:49:21.000Z,85.10
2019-02-16T01:51:49.490Z,85.10
2019-02-16T01:54:17.960Z,85.30
2019-02-16T01:56:46.433Z,85.40
2019-02-16T01:59:14.909Z,85.30
2019-02-16T02:01:43.376Z,85.60
2019-02-16T02:04:11.976Z,85.40
2019-02-16T02:06:40.484Z,85.30
2019-02-16T02:09:08.953Z,85.30
2019-02-16T02:11:37.666Z,85.30
2019-02-16T02:14:06.137Z,85.40
2019-02-16T02:16:34.601Z,85.20
2019-02-16T02:19:03.115Z,85.10
2019-02-16T02:21:40.635Z,84.90
2019-02-16T02:24:01.765Z,85.00
2019-02-16T02:26:30.269Z,84.90
2019-02-16T02:28:58.733Z,84.50
2019-02-16T02:31:27.319Z,83.90
2019-02-16T02:33:55.792Z,83.90
2019-02-16T02:36:24.252Z,83.50
2019-02-16T02:38:52.740Z,83.30
2019-02-16T02:41:21.207Z,83.00
2019-02-16T02:43:49.682Z,82.80
2019-02-16T02:46:18.166Z,82.80
2019-02-16T02:48:46.637Z,82.80
2019-02-16T02:51:15.111Z,82.70
2019-02-16T02:53:43.572Z,82.60
2019-02-16T02:56:12.060Z,82.50
2019-02-16T02:58:40.533Z,82.50
2019-02-16T03:01:09.015Z,82.40
2019-02-16T03:03:37.569Z,82.60
2019-02-16T03:06:06.038Z,82.70
2019-02-16T03:08:34.502Z,82.50
2019-02-16T03:11:02.975Z,83.40
2019-02-16T03:13:31.629Z,82.60
2019-02-16T03:16:00.210Z,82.50
2019-02-16T03:18:28.728Z,83.40
2019-02-16T03:20:57.190Z,82.40
2019-02-16T03:23:25.669Z,82.20
2019-02-16T03:26:00.054Z,82.20
2019-02-16T03:28:34.354Z,82.00
2019-02-16T03:31:08.907Z,81.90
2019-02-16T03:33:43.669Z,81.80
2019-02-16T03:36:48.931Z,81.60
2019-02-16T03:39:17.404Z,81.80
2019-02-16T03:41:45.868Z,81.80
2019-02-16T03:44:14.352Z,81.70
2019-02-16T03:46:42.824Z,81.70
2019-02-16T03:49:11.314Z,81.90
2019-02-16T03:51:39.784Z,82.00
2019-02-16T03:54:08.252Z,82.10
2019-02-16T03:56:36.720Z,82.00
2019-02-16T03:59:05.188Z,82.70
2019-02-16T04:01:33.660Z,82.00
2019-02-16T04:04:02.140Z,81.90
2019-02-16T04:06:30.673Z,82.10
2019-02-16T04:08:59.184Z,82.00
2019-02-16T04:11:27.664Z,82.00
2019-02-16T04:13:56.228Z,81.90
2019-02-16T04:16:24.700Z,81.80
2019-02-16T04:18:53.171Z,81.70
2019-02-16T04:21:21.641Z,81.70
2019-02-16T04:23:50.105Z,81.80
2019-02-16T04:26:18.584Z,81.80
2019-02-16T04:28:47.046Z,81.80
2019-02-16T04:31:15.585Z,81.70
2019-02-16T04:33:44.043Z,81.40
2019-02-16T04:36:12.509Z,81.50
2019-02-16T04:38:40.987Z,81.50
2019-02-16T04:41:09.448Z,81.40
2019-02-16T04:43:37.914Z,81.50
2019-02-16T04:46:06.395Z,81.70
2019-02-16T04:48:34.857Z,81.50
2019-02-16T04:51:03.332Z,81.30
2019-02-16T04:53:31.793Z,81.20
2019-02-16T04:56:00.285Z,81.10
2019-02-16T04:58:28.755Z,81.00
2019-02-16T05:00:57.228Z,80.80
2019-02-16T05:03:25.685Z,80.90
2019-02-16T05:05:54.155Z,80.80
2019-02-16T05:08:22.629Z,80.70
2019-02-16T05:10:51.123Z,80.90
2019-02-16T05:13:19.598Z,80.90
2019-02-16T05:15:48.056Z,81.10
2019-02-16T05:18:16.535Z,80.90
2019-02-16T05:20:44.994Z,81.00
2019-02-16T05:23:13.470Z,80.90
2019-02-16T05:25:41.932Z,80.90
2019-02-16T05:28:10.438Z,80.90
2019-02-16T05:30:38.905Z,81.00
2019-02-16T05:33:07.734Z,81.10
2019-02-16T05:35:36.238Z,81.10
2019-02-16T05:38:04.712Z,81.40
2019-02-16T05:40:33.169Z,81.40
2019-02-16T05:43:01.659Z,81.50
2019-02-16T05:45:30.134Z,81.50
2019-02-16T05:47:58.606Z,81.60
2019-02-16T05:50:27.070Z,81.70
2019-02-16T05:52:55.540Z,81.80
2019-02-16T05:55:24.000Z,81.90
2019-02-16T05:57:52.479Z,82.10
2019-02-16T06:00:22.576Z,82.30
2019-02-16T06:02:51.054Z,82.30
2019-02-16T06:05:19.507Z,82.30
2019-02-16T06:07:47.995Z,82.50
2019-02-16T06:10:16.451Z,82.50
2019-02-16T06:12:44.916Z,82.50
2019-02-16T06:15:13.659Z,82.50
2019-02-16T06:17:42.130Z,82.50
2019-02-16T06:20:10.600Z,82.60
2019-02-16T06:22:39.065Z,82.70
2019-02-16T06:25:07.542Z,82.80
2019-02-16T06:27:36.019Z,83.00
2019-02-16T06:30:06.218Z,83.00
2019-02-16T06:32:34.701Z,83.10
2019-02-16T06:35:07.761Z,83.10
2019-02-16T06:37:36.231Z,83.00
2019-02-16T06:40:06.545Z,83.10
2019-02-16T06:42:35.159Z,83.10
2019-02-16T06:45:04.163Z,83.10
2019-02-16T06:47:32.645Z,83.10
2019-02-16T06:50:01.111Z,83.10
2019-02-16T06:52:29.586Z,83.10
2019-02-16T06:54:58.048Z,83.00
2019-02-16T06:57:28.289Z,83.00
2019-02-16T06:59:56.747Z,82.90
2019-02-16T07:02:26.550Z,82.80
2019-02-16T07:04:55.065Z,83.50
2019-02-16T07:07:23.526Z,82.60
2019-02-16T07:09:52.008Z,82.50
2019-02-16T07:12:20.507Z,82.40
2019-02-16T07:14:48.979Z,82.20
2019-02-16T07:17:19.083Z,82.10
2019-02-16T07:19:49.212Z,81.90
2019-02-16T07:22:17.681Z,81.70
2019-02-16T07:24:46.439Z,81.50
2019-02-16T07:27:14.908Z,81.40
2019-02-16T07:29:43.382Z,81.20
2019-02-16T07:32:11.836Z,81.20
2019-02-16T07:34:40.310Z,80.90
2019-02-16T07:37:08.770Z,80.50
2019-02-16T07:39:37.319Z,80.30
2019-02-16T07:42:05.777Z,79.90
2019-02-16T07:44:44.954Z,79.60
2019-02-16T07:47:23.792Z,79.40
2019-02-16T07:50:10.439Z,79.20
2019-02-16T07:52:46.506Z,79.00
2019-02-16T07:55:20.639Z,79.00
2019-02-16T07:57:53.960Z,78.90
2019-02-16T08:00:24.118Z,78.70
2019-02-16T08:03:06.151Z,78.40
2019-02-16T08:05:42.550Z,78.20
2019-02-16T08:08:24.982Z,77.90
2019-02-16T08:10:55.178Z,77.60
2019-02-16T08:13:27.976Z,77.10
2019-02-16T08:16:03.883Z,76.70
2019-02-16T08:18:45.769Z,76.20
2019-02-16T08:21:24.532Z,75.80
2019-02-16T08:23:54.645Z,75.40
2019-02-16T08:26:30.653Z,75.10
2019-02-16T08:29:03.847Z,74.70
2019-02-16T08:31:43.022Z,74.80
2019-02-16T08:34:13.127Z,74.60
2019-02-16T08:36:46.136Z,74.40
2019-02-16T08:39:16.259Z,74.10
2019-02-16T08:41:46.361Z,74.00
2019-02-16T08:44:34.525Z,73.70
2019-02-16T08:47:14.370Z,73.40
2019-02-16T08:49:53.501Z,72.80
2019-02-16T08:52:23.644Z,72.30
2019-02-16T08:54:53.743Z,72.00
2019-02-16T08:57:29.658Z,71.30
2019-02-16T09:00:00.387Z,71.20
2019-02-16T09:02:30.531Z,70.50
2019-02-16T09:05:00.657Z,70.30
2019-02-16T09:07:34.083Z,69.60
2019-02-16T09:10:08.100Z,69.10
2019-02-16T09:12:38.323Z,67.70
2019-02-16T09:15:09.852Z,67.50
2019-02-16T09:17:43.287Z,67.40
2019-02-16T09:20:17.012Z,67.10
2019-02-16T09:22:47.700Z,67.10
2019-02-16T09:25:27.286Z,66.80
2019-02-16T09:27:57.950Z,66.90
2019-02-16T09:30:40.939Z,66.80
2019-02-16T09:33:26.831Z,66.60
2019-02-16T09:36:13.686Z,66.40
2019-02-16T09:39:00.552Z,65.70
2019-02-16T09:41:31.269Z,65.40
2019-02-16T09:44:18.469Z,64.80
2019-02-16T09:46:49.320Z,63.70
2019-02-16T09:49:36.224Z,62.20
2019-02-16T09:52:09.632Z,61.60
2019-02-16T09:54:43.017Z,61.20
2019-02-16T09:57:16.682Z,61.30
2019-02-16T09:59:50.202Z,61.00
2019-02-16T10:02:29.892Z,60.70
2019-02-16T10:05:17.728Z,60.30
2019-02-16T10:07:51.133Z,61.00
2019-02-16T10:10:21.796Z,60.00
2019-02-16T10:12:55.140Z,59.50
2019-02-16T10:15:32.038Z,59.30
2019-02-16T10:18:02.707Z,59.40
2019-02-16T10:20:36.298Z,59.30
2019-02-16T10:23:23.260Z,59.10
2019-02-16T10:26:02.730Z,58.50
2019-02-16T10:28:33.382Z,58.10
2019-02-16T10:31:06.681Z,57.20
2019-02-16T10:33:53.757Z,57.20
2019-02-16T10:36:24.441Z,57.50
2019-02-16T10:38:56.619Z,57.10
2019-02-16T10:41:33.527Z,56.60
2019-02-16T10:44:04.254Z,56.00
2019-02-16T10:46:35.021Z,56.10
2019-02-16T10:49:07.036Z,55.70
2019-02-16T10:51:43.861Z,55.10
2019-02-16T10:54:14.519Z,55.30
2019-02-16T10:56:45.195Z,55.40
2019-02-16T10:59:18.815Z,55.40
2019-02-16T11:02:08.475Z,55.10
2019-02-16T11:04:39.213Z,55.30
2019-02-16T11:07:09.879Z,55.40
2019-02-16T11:09:40.568Z,55.50
2019-02-16T11:12:17.198Z,55.00
2019-02-16T11:14:53.838Z,55.30
2019-02-16T11:17:36.542Z,55.50
2019-02-16T11:20:25.803Z,54.90
2019-02-16T11:22:59.408Z,54.80
2019-02-16T11:25:30.139Z,54.50
2019-02-16T11:28:16.833Z,54.60
2019-02-16T11:30:47.526Z,54.00
2019-02-16T11:33:33.467Z,54.00
2019-02-16T11:36:06.721Z,53.80
2019-02-16T11:38:40.113Z,53.30
2019-02-16T11:41:18.797Z,53.60
2019-02-16T11:43:46.006Z,53.20
2019-02-16T11:46:33.106Z,53.30
2019-02-16T11:49:09.556Z,53.40
2019-02-16T11:51:40.243Z,53.50
2019-02-16T11:54:10.986Z,52.90
2019-02-16T11:56:44.535Z,53.10
2019-02-16T11:59:27.513Z,53.10
2019-02-16T12:02:03.963Z,52.90
2019-02-16T12:04:37.438Z,52.30
2019-02-16T12:07:17.487Z,52.40
2019-02-16T12:10:06.521Z,51.90
2019-02-16T12:12:42.779Z,52.30
2019-02-16T12:15:19.513Z,52.30
2019-02-16T12:17:53.275Z,52.00
2019-02-16T12:20:33.160Z,51.70
2019-02-16T12:23:08.351Z,52.10
2019-02-16T12:25:39.031Z,51.60
2019-02-16T12:28:09.730Z,51.20
2019-02-16T12:30:46.405Z,50.40
2019-02-16T12:33:17.093Z,50.80
2019-02-16T12:35:47.765Z,51.00
2019-02-16T12:38:18.435Z,51.20
2019-02-16T12:40:54.886Z,51.20
2019-02-16T12:43:37.919Z,51.40
2019-02-16T12:46:23.911Z,51.50
2019-02-16T12:48:54.636Z,51.10
2019-02-16T12:51:25.303Z,49.80
2019-02-16T12:53:58.534Z,50.20
2019-02-16T12:56:45.692Z,50.00
2019-02-16T12:59:21.840Z,50.10
2019-02-16T13:01:55.283Z,50.00
2019-02-16T13:04:35.194Z,49.70
2019-02-16T13:07:05.942Z,49.60
2019-02-16T13:09:40.401Z,49.50
2019-02-16T13:12:20.188Z,49.60
2019-02-16T13:14:53.805Z,49.80
2019-02-16T13:17:36.488Z,49.60
2019-02-16T13:20:21.776Z,49.80
2019-02-16T13:22:52.469Z,50.70
2019-02-16T13:25:25.776Z,49.90
2019-02-16T13:27:59.448Z,49.90
2019-02-16T13:30:34.051Z,50.00
2019-02-16T13:33:21.231Z,49.90
2019-02-16T13:35:54.826Z,49.90
2019-02-16T13:38:31.520Z,49.80
2019-02-16T13:41:02.200Z,49.50
2019-02-16T13:43:38.883Z,49.10
2019-02-16T13:46:09.567Z,49.40
2019-02-16T13:48:43.178Z,48.10
2019-02-16T13:51:13.864Z,48.40
2019-02-16T13:53:44.558Z,47.30
2019-02-16T13:56:15.240Z,47.40
2019-02-16T13:58:45.924Z,47.30
2019-02-16T14:01:16.601Z,47.10
2019-02-16T14:03:50.517Z,47.10
2019-02-16T14:06:23.913Z,46.40
2019-02-16T14:08:54.606Z,46.40
2019-02-16T14:11:40.395Z,46.40
2019-02-16T14:14:11.089Z,46.00
2019-02-16T14:16:44.546Z,45.80
2019-02-16T14:19:13.594Z,45.30
2019-02-16T14:21:42.709Z,45.00
2019-02-16T14:24:11.751Z,44.50
2019-02-16T14:26:40.796Z,44.10
2019-02-16T14:29:09.837Z,44.10
2019-02-16T14:31:38.903Z,44.20
2019-02-16T14:34:07.940Z,43.50
2019-02-16T14:36:37.057Z,43.30
2019-02-16T14:39:07.808Z,42.90
2019-02-16T14:41:36.871Z,42.90
2019-02-16T14:44:05.958Z,42.80
2019-02-16T14:46:35.033Z,42.90
2019-02-16T14:49:04.066Z,42.80
2019-02-16T14:51:33.097Z,43.20
2019-02-16T14:54:02.149Z,42.50
2019-02-16T14:56:31.205Z,42.60
2019-02-16T14:59:00.330Z,43.00
2019-02-16T15:01:29.368Z,42.40
2019-02-16T15:03:58.508Z,42.50
2019-02-16T15:06:27.542Z,42.70
2019-02-16T15:08:56.599Z,42.30
2019-02-16T15:11:25.643Z,42.70
2019-02-16T15:13:54.741Z,42.60
2019-02-16T15:16:23.893Z,42.30
2019-02-16T15:18:52.949Z,42.20
2019-02-16T15:21:21.975Z,42.10
2019-02-16T15:23:51.007Z,42.10
2019-02-16T15:26:28.098Z,41.90
2019-02-16T15:28:50.819Z,41.60
2019-02-16T15:31:19.861Z,41.80
2019-02-16T15:33:48.885Z,41.80
2019-02-16T15:36:23.980Z,41.80
2019-02-16T15:38:48.781Z,42.00
2019-02-16T15:41:17.843Z,42.10
2019-02-16T15:43:46.882Z,42.30
2019-02-16T15:46:15.937Z,42.60
2019-02-16T15:48:44.960Z,43.10
2019-02-16T15:51:14.013Z,43.70
2019-02-16T15:53:43.061Z,44.20
2019-02-16T15:56:12.104Z,44.70
2019-02-16T15:58:41.172Z,45.20
2019-02-16T16:01:10.235Z,45.60
2019-02-16T16:04:00.649Z,46.10
2019-02-16T16:06:29.700Z,46.40
2019-02-16T16:09:03.030Z,46.90
2019-02-16T16:11:45.377Z,47.30
2019-02-16T16:14:16.054Z,47.80
2019-02-16T16:16:46.738Z,48.30
2019-02-16T16:19:26.247Z,48.70
2019-02-16T16:21:59.381Z,49.10
2019-02-16T16:24:46.546Z,49.70
2019-02-16T16:27:22.982Z,50.10
2019-02-16T16:29:53.662Z,50.60
2019-02-16T16:32:30.372Z,51.00
2019-02-16T16:35:15.966Z,51.50
2019-02-16T16:37:46.659Z,51.80
2019-02-16T16:40:32.698Z,52.20
2019-02-16T16:43:04.402Z,52.60
2019-02-16T16:45:41.317Z,52.90
2019-02-16T16:48:14.683Z,53.90
2019-02-16T16:50:54.275Z,53.60
2019-02-16T16:53:27.715Z,54.00
2019-02-16T16:56:13.774Z,54.20
2019-02-16T16:58:44.481Z,54.60
2019-02-16T17:01:18.077Z,55.10
2019-02-16T17:03:54.694Z,55.40
2019-02-16T17:06:25.394Z,55.70
2019-02-16T17:09:02.069Z,56.10
2019-02-16T17:11:48.137Z,56.30
2019-02-16T17:14:21.826Z,56.60
2019-02-16T17:16:52.515Z,57.00
2019-02-16T17:19:23.295Z,57.30
2019-02-16T17:22:10.501Z,57.60
2019-02-16T17:24:41.223Z,57.80
2019-02-16T17:27:24.036Z,58.00
2019-02-16T17:29:54.814Z,58.40
2019-02-16T17:32:31.225Z,58.60
2019-02-16T17:35:01.939Z,58.80
2019-02-16T17:37:32.636Z,59.10
2019-02-16T17:40:03.327Z,59.30
2019-02-16T17:42:50.280Z,59.50
2019-02-16T17:45:30.050Z,59.80
2019-02-16T17:48:12.938Z,60.10
2019-02-16T17:50:43.639Z,60.40
2019-02-16T17:53:14.348Z,60.50
2019-02-16T17:55:59.742Z,60.70
2019-02-16T17:58:45.780Z,61.00
2019-02-16T18:01:22.494Z,61.30
2019-02-16T18:04:09.798Z,61.50
2019-02-16T18:06:49.558Z,61.80
2019-02-16T18:09:23.132Z,62.00
2019-02-16T18:11:59.650Z,62.10
2019-02-16T18:14:33.092Z,62.40
2019-02-16T18:17:15.926Z,62.60
2019-02-16T18:19:46.639Z,62.80
2019-02-16T18:22:17.314Z,62.90
2019-02-16T18:24:48.066Z,63.10
2019-02-16T18:27:18.776Z,63.20
2019-02-16T18:29:54.957Z,63.50
2019-02-16T18:32:31.733Z,64.50
2019-02-16T18:35:05.653Z,63.90
2019-02-16T18:37:39.286Z,64.20
2019-02-16T18:40:25.086Z,64.40
2019-02-16T18:43:05.216Z,64.40
2019-02-16T18:45:35.920Z,64.90
2019-02-16T18:48:24.335Z,65.00
2019-02-16T18:51:07.150Z,65.00
2019-02-16T18:53:37.849Z,65.20
2019-02-16T18:56:19.394Z,65.40
2019-02-16T18:58:49.949Z,65.40
2019-02-16T19:01:26.769Z,65.50
2019-02-16T19:04:13.763Z,65.70
2019-02-16T19:07:00.840Z,65.70
2019-02-16T19:09:31.581Z,65.90
2019-02-16T19:12:02.287Z,66.00
2019-02-16T19:14:48.016Z,66.00
2019-02-16T19:17:27.701Z,66.20
2019-02-16T19:19:58.403Z,66.40
2019-02-16T19:22:31.779Z,66.40
2019-02-16T19:25:11.669Z,66.50
2019-02-16T19:27:57.663Z,66.50
2019-02-16T19:30:34.328Z,67.30
2019-02-16T19:33:07.681Z,66.30
2019-02-16T19:35:41.367Z,66.20
2019-02-16T19:38:28.646Z,66.10
2019-02-16T19:41:14.258Z,65.90
2019-02-16T19:43:44.967Z,65.70
2019-02-16T19:46:15.650Z,65.60
2019-02-16T19:49:05.163Z,65.50
2019-02-16T19:51:45.093Z,65.40
2019-02-16T19:54:15.808Z,65.30
2019-02-16T19:56:46.507Z,65.50
2019-02-16T19:59:23.180Z,65.40
2019-02-16T20:01:56.577Z,65.40
2019-02-16T20:04:45.827Z,65.30
2019-02-16T20:07:19.019Z,65.20
2019-02-16T20:09:55.298Z,65.00
2019-02-16T20:12:26.048Z,65.00
2019-02-16T20:15:02.514Z,64.70
2019-02-16T20:17:33.203Z,64.50
2019-02-16T20:20:03.894Z,64.40
2019-02-16T20:22:40.612Z,64.40
2019-02-16T20:25:17.014Z,64.40
2019-02-16T20:27:57.155Z,64.50
2019-02-16T20:30:39.921Z,64.10
2019-02-16T20:33:19.450Z,64.00
2019-02-16T20:36:02.189Z,63.90
2019-02-16T20:38:36.049Z,63.80
2019-02-16T20:41:09.693Z,63.80
2019-02-16T20:43:56.797Z,63.90
2019-02-16T20:46:27.491Z,64.00
2019-02-16T20:49:04.443Z,63.80
2019-02-16T20:51:41.349Z,63.80
2019-02-16T20:54:12.039Z,63.90
2019-02-16T20:56:42.725Z,64.00
2019-02-16T20:59:13.441Z,64.00
2019-02-16T21:01:59.176Z,64.00
2019-02-16T21:04:32.527Z,64.10
2019-02-16T21:07:19.259Z,64.70
2019-02-16T21:09:52.955Z,64.30
2019-02-16T21:12:32.929Z,64.40
2019-02-16T21:15:03.630Z,64.50
2019-02-16T21:17:36.989Z,64.50
2019-02-16T21:20:14.491Z,64.70
2019-02-16T21:22:55.754Z,64.70
2019-02-16T21:25:34.895Z,64.80
2019-02-16T21:28:13.549Z,64.80
2019-02-16T21:30:52.445Z,64.90
2019-02-16T21:33:22.545Z,65.10
2019-02-16T21:36:02.440Z,65.20
2019-02-16T21:38:48.905Z,65.40
2019-02-16T21:41:19.052Z,65.50
2019-02-16T21:43:51.884Z,65.50
2019-02-16T21:46:24.806Z,65.50
2019-02-16T21:49:09.987Z,65.70
2019-02-16T21:51:42.555Z,65.80
2019-02-16T21:54:12.662Z,65.80
2019-02-16T21:56:48.768Z,66.00
2019-02-16T21:59:21.933Z,66.10
2019-02-16T22:01:54.930Z,66.10
2019-02-16T22:04:25.030Z,66.30
2019-02-16T22:07:04.198Z,66.40
2019-02-16T22:09:34.878Z,66.50
2019-02-16T22:12:13.864Z,66.50
2019-02-16T22:14:42.330Z,66.60
2019-02-16T22:17:10.800Z,66.80
2019-02-16T22:19:39.268Z,67.00
2019-02-16T22:22:07.732Z,67.00
2019-02-16T22:24:36.214Z,67.10
2019-02-16T22:27:04.671Z,67.30
2019-02-16T22:29:33.160Z,67.50
2019-02-16T22:32:01.634Z,67.60
2019-02-16T22:34:30.107Z,67.80
2019-02-16T22:36:58.564Z,68.00
2019-02-16T22:39:27.044Z,68.20
2019-02-16T22:41:55.502Z,68.30
2019-02-16T22:44:23.984Z,68.40
2019-02-16T22:46:52.457Z,68.60
2019-02-16T22:49:20.936Z,68.70
2019-02-16T22:51:49.405Z,68.90
2019-02-16T22:54:17.883Z,68.90
2019-02-16T22:56:46.350Z,69.00
2019-02-16T22:59:14.819Z,69.00
2019-02-16T23:01:43.717Z,69.00
2019-02-16T23:04:12.204Z,69.00
2019-02-16T23:06:40.675Z,69.00
2019-02-16T23:09:11.033Z,69.00
2019-02-16T23:11:39.492Z,68.90
2019-02-16T23:14:08.116Z,69.00
2019-02-16T23:16:36.651Z,68.90
2019-02-16T23:19:05.124Z,69.00
2019-02-16T23:21:33.593Z,69.10
2019-02-16T23:24:02.073Z,69.10
2019-02-16T23:26:30.541Z,69.30
2019-02-16T23:28:59.031Z,69.50
2019-02-16T23:31:27.493Z,69.50
2019-02-16T23:33:55.975Z,69.70
2019-02-16T23:36:24.439Z,69.80
2019-02-16T23:38:52.910Z,69.90
2019-02-16T23:41:21.445Z,70.10
2019-02-16T23:43:49.938Z,70.20
2019-02-16T23:46:18.407Z,70.40
2019-02-16T23:48:46.893Z,70.50
2019-02-16T23:51:15.353Z,70.60
2019-02-16T23:53:44.289Z,70.80
2019-02-16T23:56:12.755Z,70.80
2019-02-16T23:58:48.928Z,71.00
